createdAt,value
2022-12-16T00:01:16.417Z,84.57
2022-12-16T00:03:48.083Z,86.35
2022-12-16T00:06:14.485Z,85.41
2022-12-16T00:08:40.871Z,85.51
2022-12-16T00:11:08.139Z,86.84
2022-12-16T00:13:36.998Z,87.15
2022-12-16T00:16:05.610Z,88.08
2022-12-16T00:18:32.552Z,87.82
2022-12-16T00:20:59.001Z,87.21
2022-12-16T00:23:26.898Z,86.01
2022-12-16T00:25:53.207Z,85.40
2022-12-16T00:28:22.751Z,86.43
2022-12-16T00:30:50.664Z,85.99
2022-12-16T00:33:20.324Z,85.44
2022-12-16T00:35:46.877Z,85.47
2022-12-16T00:38:14.522Z,84.85
2022-12-16T00:40:41.852Z,84.72
2022-12-16T00:43:08.974Z,85.40
2022-12-16T00:45:35.439Z,84.96
2022-12-16T00:48:02.100Z,84.74
2022-12-16T00:50:28.579Z,84.33
2022-12-16T00:52:54.989Z,84.95
2022-12-16T00:55:21.286Z,84.58
2022-12-16T00:57:47.646Z,85.12
2022-12-16T01:00:15.945Z,85.26
2022-12-16T01:02:44.271Z,85.61
2022-12-16T01:05:12.267Z,85.55
2022-12-16T01:07:38.685Z,84.77
2022-12-16T01:10:06.405Z,85.03
2022-12-16T01:12:34.700Z,84.79
2022-12-16T01:15:01.901Z,84.74
2022-12-16T01:17:28.384Z,85.92
2022-12-16T01:19:54.602Z,85.35
2022-12-16T01:22:22.424Z,85.49
2022-12-16T01:24:48.708Z,85.91
2022-12-16T01:27:15.756Z,86.27
2022-12-16T01:29:42.378Z,86.20
2022-12-16T01:32:13.075Z,86.59
2022-12-16T01:34:40.409Z,86.65
2022-12-16T01:37:11.418Z,86.42
2022-12-16T01:39:37.900Z,86.38
2022-12-16T01:42:11.633Z,87.10
2022-12-16T01:44:37.820Z,87.24
2022-12-16T01:47:05.598Z,87.14
2022-12-16T01:49:46.947Z,87.71
2022-12-16T01:52:21.098Z,86.99
2022-12-16T01:54:53.335Z,86.02
2022-12-16T01:57:28.544Z,86.80
2022-12-16T01:59:56.639Z,87.28
2022-12-16T02:02:23.698Z,86.69
2022-12-16T02:05:08.534Z,87.22
2022-12-16T02:07:34.940Z,87.37
2022-12-16T02:10:01.810Z,87.11
2022-12-16T02:12:41.051Z,86.72
2022-12-16T02:15:13.255Z,87.52
2022-12-16T02:18:01.811Z,87.21
2022-12-16T02:20:46.720Z,87.89
2022-12-16T02:23:35.558Z,88.31
2022-12-16T02:26:29.825Z,87.94
2022-12-16T02:29:01.854Z,88.02
2022-12-16T02:31:35.700Z,88.17
2022-12-16T02:34:14.118Z,87.45
2022-12-16T02:37:04.931Z,87.94
2022-12-16T02:39:36.598Z,87.26
2022-12-16T02:42:15.785Z,87.88
2022-12-16T02:45:02.252Z,87.25
2022-12-16T02:47:29.730Z,86.88
2022-12-16T02:49:56.201Z,86.81
2022-12-16T02:52:25.406Z,87.13
2022-12-16T02:54:56.075Z,86.92
2022-12-16T02:57:46.416Z,87.15
2022-12-16T03:00:23.478Z,87.58
2022-12-16T03:02:56.963Z,87.58
2022-12-16T03:05:32.125Z,87.68
2022-12-16T03:08:03.628Z,87.66
2022-12-16T03:10:40.649Z,87.67
2022-12-16T03:13:10.446Z,87.32
2022-12-16T03:15:40.029Z,87.19
2022-12-16T03:18:09.569Z,87.52
2022-12-16T03:20:59.293Z,88.28
2022-12-16T03:23:33.231Z,88.49
2022-12-16T03:26:08.308Z,88.47
2022-12-16T03:28:59.258Z,88.50
2022-12-16T03:31:46.962Z,89.13
2022-12-16T03:34:25.123Z,88.53
2022-12-16T03:36:57.607Z,88.73
2022-12-16T03:39:24.084Z,89.12
2022-12-16T03:41:53.657Z,89.05
2022-12-16T03:44:21.551Z,90.09
2022-12-16T03:46:48.186Z,90.54
2022-12-16T03:49:14.289Z,89.58
2022-12-16T03:51:40.709Z,89.65
2022-12-16T03:54:06.783Z,89.11
2022-12-16T03:56:33.173Z,89.47
2022-12-16T03:58:59.527Z,89.89
2022-12-16T04:01:26.059Z,89.23
2022-12-16T04:03:52.282Z,88.68
2022-12-16T04:06:18.796Z,89.43
2022-12-16T04:08:46.167Z,89.07
2022-12-16T04:11:32.466Z,89.15
2022-12-16T04:14:17.509Z,89.86
2022-12-16T04:17:02.998Z,90.00
2022-12-16T04:19:52.626Z,90.92
2022-12-16T04:22:49.648Z,91.07
2022-12-16T04:25:23.588Z,91.51
2022-12-16T04:27:50.022Z,90.90
2022-12-16T04:30:18.862Z,90.96
2022-12-16T04:33:13.564Z,90.45
2022-12-16T04:35:58.190Z,90.82
2022-12-16T04:38:43.572Z,90.54
2022-12-16T04:41:28.499Z,91.06
2022-12-16T04:44:14.353Z,91.69
2022-12-16T04:46:59.264Z,91.22
2022-12-16T04:49:44.157Z,90.82
2022-12-16T04:52:28.846Z,90.77
2022-12-16T04:55:13.689Z,89.87
2022-12-16T04:57:58.456Z,90.32
2022-12-16T05:00:43.282Z,90.23
2022-12-16T05:03:29.398Z,89.46
2022-12-16T05:06:14.418Z,89.98
2022-12-16T05:08:59.048Z,89.16
2022-12-16T05:11:43.713Z,89.48
2022-12-16T05:14:28.480Z,88.74
2022-12-16T05:17:13.557Z,89.18
2022-12-16T05:19:58.274Z,88.59
2022-12-16T05:22:43.203Z,88.70
2022-12-16T05:25:27.548Z,88.60
2022-12-16T05:28:13.078Z,88.93
2022-12-16T05:30:58.057Z,89.34
2022-12-16T05:33:43.440Z,89.40
2022-12-16T05:36:28.139Z,89.22
2022-12-16T05:39:12.961Z,89.57
2022-12-16T05:41:57.736Z,88.91
2022-12-16T05:44:42.689Z,88.78
2022-12-16T05:47:28.135Z,88.71
2022-12-16T05:50:13.024Z,88.38
2022-12-16T05:52:58.053Z,88.55
2022-12-16T05:55:42.958Z,88.24
2022-12-16T05:58:27.708Z,88.36
2022-12-16T06:01:12.957Z,88.12
2022-12-16T06:03:57.747Z,87.59
2022-12-16T06:06:42.808Z,88.94
2022-12-16T06:09:27.852Z,88.88
2022-12-16T06:12:12.692Z,89.33
2022-12-16T06:14:57.470Z,88.84
2022-12-16T06:17:42.811Z,88.61
2022-12-16T06:20:28.017Z,88.35
2022-12-16T06:23:13.254Z,88.55
2022-12-16T06:25:58.389Z,88.98
2022-12-16T06:28:46.029Z,90.39
2022-12-16T06:31:31.729Z,90.86
2022-12-16T06:34:17.000Z,91.04
2022-12-16T06:37:02.292Z,90.63
2022-12-16T06:39:51.384Z,90.69
2022-12-16T06:42:37.865Z,90.76
2022-12-16T06:45:23.539Z,91.60
2022-12-16T06:48:08.238Z,90.86
2022-12-16T06:50:55.820Z,91.80
2022-12-16T06:53:41.348Z,91.33
2022-12-16T06:56:26.619Z,91.95
2022-12-16T06:59:11.812Z,91.94
2022-12-16T07:01:57.161Z,92.48
2022-12-16T07:04:44.294Z,92.44
2022-12-16T07:07:29.314Z,92.64
2022-12-16T07:10:14.027Z,91.83
2022-12-16T07:12:59.179Z,92.02
2022-12-16T07:15:43.999Z,92.88
2022-12-16T07:18:29.370Z,93.59
2022-12-16T07:21:14.323Z,93.85
2022-12-16T07:23:59.368Z,94.42
2022-12-16T07:26:44.305Z,94.33
2022-12-16T07:29:29.029Z,94.28
2022-12-16T07:32:13.929Z,94.57
2022-12-16T07:34:59.011Z,94.01
2022-12-16T07:37:43.847Z,94.68
2022-12-16T07:40:29.264Z,94.68
2022-12-16T07:43:14.211Z,95.74
2022-12-16T07:45:59.480Z,94.99
2022-12-16T07:48:44.288Z,95.27
2022-12-16T07:51:31.235Z,95.20
2022-12-16T07:54:15.639Z,95.46
2022-12-16T07:57:00.573Z,95.44
2022-12-16T07:59:45.192Z,96.19
2022-12-16T08:02:30.279Z,95.14
2022-12-16T08:05:15.022Z,94.85
2022-12-16T08:08:00.724Z,94.83
2022-12-16T08:10:45.372Z,94.20
2022-12-16T08:13:30.605Z,95.65
2022-12-16T08:16:15.777Z,95.68
2022-12-16T08:19:04.900Z,95.45
2022-12-16T08:21:52.645Z,95.99
2022-12-16T08:24:37.782Z,96.03
2022-12-16T08:27:22.640Z,96.39
2022-12-16T08:30:07.907Z,96.71
2022-12-16T08:32:58.925Z,96.25
2022-12-16T08:35:45.954Z,96.20
2022-12-16T08:38:30.764Z,96.99
2022-12-16T08:41:15.601Z,96.93
2022-12-16T08:44:00.419Z,96.73
2022-12-16T08:46:45.801Z,96.08
2022-12-16T08:49:30.794Z,96.56
2022-12-16T08:52:15.946Z,96.96
2022-12-16T08:55:00.623Z,96.77
2022-12-16T08:57:45.539Z,96.81
2022-12-16T09:00:30.824Z,96.85
2022-12-16T09:03:17.362Z,96.06
2022-12-16T09:06:02.470Z,95.66
2022-12-16T09:08:47.902Z,95.68
2022-12-16T09:11:40.196Z,96.19
2022-12-16T09:14:24.900Z,96.45
2022-12-16T09:17:09.823Z,96.17
2022-12-16T09:19:56.622Z,95.79
2022-12-16T09:22:41.860Z,96.29
2022-12-16T09:25:27.025Z,96.58
2022-12-16T09:28:11.988Z,96.76
2022-12-16T09:30:57.834Z,96.81
2022-12-16T09:33:42.466Z,96.74
2022-12-16T09:36:27.600Z,96.52
2022-12-16T09:39:12.856Z,96.75
2022-12-16T09:42:03.668Z,96.42
2022-12-16T09:45:08.092Z,96.56
2022-12-16T09:48:10.779Z,96.33
2022-12-16T09:51:13.083Z,96.95
2022-12-16T09:54:01.082Z,96.83
2022-12-16T09:56:52.231Z,96.36
2022-12-16T09:59:46.366Z,96.07
2022-12-16T10:02:34.994Z,96.75
2022-12-16T10:05:21.195Z,97.71
2022-12-16T10:08:19.994Z,97.36
2022-12-16T10:11:09.271Z,97.64
2022-12-16T10:14:24.341Z,96.87
2022-12-16T10:17:24.742Z,95.79
2022-12-16T10:20:18.791Z,96.28
2022-12-16T10:23:53.731Z,97.19
2022-12-16T10:27:03.558Z,97.13
2022-12-16T10:29:50.967Z,97.25
2022-12-16T10:33:07.657Z,97.52
2022-12-16T10:36:09.807Z,97.36
2022-12-16T10:39:10.269Z,97.15
2022-12-16T10:41:59.147Z,97.23
2022-12-16T10:44:53.475Z,98.21
2022-12-16T10:47:40.769Z,97.62
2022-12-16T10:50:30.994Z,97.50
2022-12-16T10:53:20.894Z,97.87
2022-12-16T10:56:11.065Z,97.37
2022-12-16T10:59:08.498Z,97.66
2022-12-16T11:01:54.060Z,97.62
2022-12-16T11:04:57.749Z,97.99
2022-12-16T11:07:52.238Z,98.32
2022-12-16T11:10:41.388Z,97.94
2022-12-16T11:13:41.657Z,97.87
2022-12-16T11:16:42.071Z,97.07
2022-12-16T11:19:45.606Z,97.47
2022-12-16T11:22:32.202Z,97.55
2022-12-16T11:25:25.227Z,97.36
2022-12-16T11:28:24.388Z,97.18
2022-12-16T11:31:13.357Z,97.16
2022-12-16T11:34:00.468Z,97.38
2022-12-16T11:36:45.482Z,96.95
2022-12-16T11:39:37.358Z,96.33
2022-12-16T11:42:28.381Z,95.66
2022-12-16T11:45:16.828Z,95.88
2022-12-16T11:48:08.311Z,95.33
2022-12-16T11:50:58.963Z,95.39
2022-12-16T11:53:55.995Z,95.45
2022-12-16T11:56:45.080Z,95.67
2022-12-16T11:59:35.850Z,96.10
2022-12-16T12:02:22.597Z,95.78
2022-12-16T12:05:08.778Z,95.98
2022-12-16T12:08:16.823Z,96.47
2022-12-16T12:11:38.468Z,97.04
2022-12-16T12:14:52.181Z,96.72
2022-12-16T12:17:53.180Z,96.65
2022-12-16T12:20:49.880Z,96.33
2022-12-16T12:23:49.995Z,97.09
2022-12-16T12:26:42.738Z,96.92
2022-12-16T12:29:49.641Z,96.63
2022-12-16T12:32:50.544Z,97.37
2022-12-16T12:35:43.458Z,96.74
2022-12-16T12:38:47.747Z,96.69
2022-12-16T12:41:46.094Z,97.04
2022-12-16T12:44:49.453Z,96.61
2022-12-16T12:47:37.147Z,95.56
2022-12-16T12:50:54.034Z,95.93
2022-12-16T12:53:51.527Z,95.25
2022-12-16T12:56:56.194Z,95.46
2022-12-16T13:00:13.412Z,96.02
2022-12-16T13:03:16.159Z,95.65
2022-12-16T13:06:01.718Z,96.56
2022-12-16T13:08:55.763Z,95.93
2022-12-16T13:11:42.289Z,96.26
2022-12-16T13:14:49.157Z,96.70
2022-12-16T13:17:37.915Z,96.14
2022-12-16T13:20:52.290Z,96.00
2022-12-16T13:23:46.217Z,95.94
2022-12-16T13:26:34.868Z,96.02
2022-12-16T13:29:56.715Z,96.14
2022-12-16T13:32:43.316Z,95.46
2022-12-16T13:35:28.240Z,95.71
2022-12-16T13:38:15.953Z,95.86
2022-12-16T13:41:10.763Z,95.74
2022-12-16T13:44:08.088Z,96.05
2022-12-16T13:47:03.790Z,96.31
2022-12-16T13:50:04.955Z,96.60
2022-12-16T13:52:55.896Z,96.49
2022-12-16T13:56:05.799Z,96.22
2022-12-16T13:59:10.824Z,95.93
2022-12-16T14:02:05.124Z,96.32
2022-12-16T14:04:55.258Z,96.16
2022-12-16T14:07:42.825Z,95.89
2022-12-16T14:10:49.330Z,95.58
2022-12-16T14:13:53.215Z,95.58
2022-12-16T14:17:06.241Z,95.57
2022-12-16T14:20:12.422Z,95.94
2022-12-16T14:23:10.727Z,96.07
2022-12-16T14:26:00.097Z,95.88
2022-12-16T14:28:48.363Z,95.43
2022-12-16T14:31:52.406Z,95.52
2022-12-16T14:34:44.996Z,95.40
2022-12-16T14:37:56.659Z,95.77
2022-12-16T14:40:41.661Z,95.70
2022-12-16T14:43:34.656Z,95.17
2022-12-16T14:46:20.642Z,95.55
2022-12-16T14:49:07.505Z,95.31
2022-12-16T14:52:03.078Z,95.64
2022-12-16T14:55:01.128Z,96.46
2022-12-16T14:57:48.007Z,97.10
2022-12-16T15:00:36.183Z,96.68
2022-12-16T15:03:24.348Z,96.81
2022-12-16T15:06:11.172Z,96.16
2022-12-16T15:09:14.129Z,95.42
2022-12-16T15:12:01.302Z,94.61
2022-12-16T15:14:49.365Z,94.63
2022-12-16T15:17:47.512Z,95.04
2022-12-16T15:20:43.120Z,95.56
2022-12-16T15:23:53.112Z,95.75
2022-12-16T15:26:43.836Z,96.73
2022-12-16T15:29:51.422Z,97.27
2022-12-16T15:32:42.832Z,97.30
2022-12-16T15:35:49.673Z,97.25
2022-12-16T15:38:34.169Z,97.36
2022-12-16T15:41:20.915Z,97.30
2022-12-16T15:44:06.306Z,97.34
2022-12-16T15:46:56.582Z,97.55
2022-12-16T15:50:11.096Z,97.83
2022-12-16T15:52:56.812Z,97.24
2022-12-16T15:56:04.163Z,96.89
2022-12-16T15:58:52.762Z,97.07
2022-12-16T16:01:42.957Z,96.82
2022-12-16T16:04:42.750Z,96.40
2022-12-16T16:07:41.824Z,96.83
2022-12-16T16:10:37.078Z,97.08
2022-12-16T16:13:22.496Z,97.48
2022-12-16T16:16:08.578Z,98.23
2022-12-16T16:18:53.362Z,98.68
2022-12-16T16:21:39.472Z,98.20
2022-12-16T16:24:24.744Z,97.78
2022-12-16T16:27:11.979Z,98.04
2022-12-16T16:29:57.039Z,97.38
2022-12-16T16:32:42.109Z,97.04
2022-12-16T16:35:26.840Z,96.77
2022-12-16T16:38:16.753Z,96.06
2022-12-16T16:41:03.833Z,96.18
2022-12-16T16:43:49.256Z,96.52
2022-12-16T16:47:01.379Z,96.29
2022-12-16T16:49:47.946Z,97.42
2022-12-16T16:52:36.077Z,97.42
2022-12-16T16:55:22.963Z,97.21
2022-12-16T16:58:07.752Z,97.13
2022-12-16T17:00:53.250Z,96.93
2022-12-16T17:03:39.298Z,96.47
2022-12-16T17:06:25.029Z,96.18
2022-12-16T17:09:09.820Z,95.80
2022-12-16T17:11:56.984Z,95.74
2022-12-16T17:14:42.157Z,95.63
2022-12-16T17:17:28.500Z,95.29
2022-12-16T17:20:13.659Z,95.94
2022-12-16T17:22:59.000Z,96.25
2022-12-16T17:25:43.787Z,96.34
2022-12-16T17:28:29.436Z,97.54
2022-12-16T17:31:14.310Z,98.19
2022-12-16T17:33:59.164Z,98.68
2022-12-16T17:36:43.964Z,97.66
2022-12-16T17:39:29.404Z,97.52
2022-12-16T17:42:15.288Z,97.42
2022-12-16T17:45:00.884Z,97.72
2022-12-16T17:47:46.486Z,97.71
2022-12-16T17:50:31.874Z,97.09
2022-12-16T17:53:17.672Z,96.91
2022-12-16T17:56:07.367Z,97.55
2022-12-16T17:58:57.112Z,97.33
2022-12-16T18:01:43.087Z,96.33
2022-12-16T18:04:33.109Z,97.02
2022-12-16T18:07:18.641Z,97.23
2022-12-16T18:10:03.497Z,96.85
2022-12-16T18:12:49.896Z,96.46
2022-12-16T18:15:34.850Z,96.10
2022-12-16T18:18:20.367Z,96.82
2022-12-16T18:21:05.417Z,97.38
2022-12-16T18:23:50.916Z,97.67
2022-12-16T18:26:35.957Z,97.48
2022-12-16T18:29:21.121Z,97.63
2022-12-16T18:32:07.945Z,96.90
2022-12-16T18:34:53.336Z,97.75
2022-12-16T18:37:38.315Z,97.33
2022-12-16T18:40:24.596Z,97.28
2022-12-16T18:43:14.049Z,97.80
2022-12-16T18:45:59.497Z,97.60
2022-12-16T18:48:44.629Z,97.78
2022-12-16T18:51:29.412Z,98.18
2022-12-16T18:54:14.347Z,96.85
2022-12-16T18:56:59.664Z,97.63
2022-12-16T18:59:44.595Z,98.31
2022-12-16T19:02:30.121Z,99.23
2022-12-16T19:05:15.285Z,98.99
2022-12-16T19:08:00.106Z,99.17
2022-12-16T19:10:44.953Z,98.60
2022-12-16T19:13:34.143Z,99.24
2022-12-16T19:16:20.729Z,99.48
2022-12-16T19:19:05.915Z,99.61
2022-12-16T19:24:56.380Z,100.00
2022-12-16T19:27:41.765Z,100.00
2022-12-16T19:30:27.803Z,99.23
2022-12-16T19:33:12.600Z,99.25
2022-12-16T19:35:58.015Z,99.77
2022-12-16T19:38:42.926Z,99.29
2022-12-16T19:41:33.824Z,100.00
2022-12-16T19:44:18.700Z,99.40
2022-12-16T19:47:03.968Z,99.61
2022-12-16T19:49:48.729Z,99.25
2022-12-16T19:52:34.197Z,100.00
2022-12-16T19:55:18.917Z,99.35
2022-12-16T19:58:05.508Z,98.90
2022-12-16T20:00:50.597Z,99.21
2022-12-16T20:03:37.669Z,99.15
2022-12-16T20:06:26.367Z,98.37
2022-12-16T20:09:12.586Z,99.23
2022-12-16T20:11:58.294Z,99.06
2022-12-16T20:14:44.141Z,98.79
2022-12-16T20:17:30.224Z,97.68
2022-12-16T20:20:17.755Z,97.59
2022-12-16T20:23:02.882Z,97.95
2022-12-16T20:25:49.632Z,97.57
2022-12-16T20:28:35.176Z,98.07
2022-12-16T20:31:21.752Z,98.00
2022-12-16T20:34:14.551Z,96.86
2022-12-16T20:37:00.315Z,96.49
2022-12-16T20:39:51.173Z,96.62
2022-12-16T20:42:43.931Z,96.05
2022-12-16T20:45:32.947Z,95.79
2022-12-16T20:48:19.301Z,95.01
2022-12-16T20:51:19.795Z,95.65
2022-12-16T20:54:09.560Z,95.70
2022-12-16T20:56:54.880Z,96.18
2022-12-16T20:59:48.708Z,95.30
2022-12-16T21:05:39.560Z,96.61
2022-12-16T21:08:24.402Z,96.97
2022-12-16T21:11:14.296Z,97.52
2022-12-16T21:14:01.512Z,96.58
2022-12-16T21:14:42.848Z,94.67
2022-12-16T21:16:47.479Z,96.40
2022-12-16T21:19:33.821Z,97.42
2022-12-16T21:22:19.692Z,97.08
2022-12-16T21:25:04.943Z,97.90
2022-12-16T21:27:49.920Z,98.28
2022-12-16T21:30:35.059Z,98.50
2022-12-16T21:33:20.530Z,98.56
2022-12-16T21:36:13.025Z,98.30
2022-12-16T21:38:58.589Z,98.04
2022-12-16T21:41:43.371Z,98.38
2022-12-16T21:44:28.852Z,98.17
2022-12-16T21:47:13.661Z,98.14
2022-12-16T21:49:59.357Z,99.46
2022-12-16T21:52:44.220Z,99.51
2022-12-16T21:55:29.352Z,99.47
2022-12-16T21:58:14.505Z,99.27
2022-12-16T22:04:04.247Z,100.00
2022-12-16T22:06:49.280Z,99.88
2022-12-16T22:09:34.567Z,100.00
2022-12-16T22:12:19.607Z,100.00
2022-12-16T22:15:04.356Z,100.00
2022-12-16T22:17:57.554Z,100.00
2022-12-16T22:20:43.943Z,99.37
2022-12-16T22:23:28.802Z,100.00
2022-12-16T22:26:15.382Z,99.58
2022-12-16T22:29:00.451Z,99.59
2022-12-16T22:31:45.338Z,99.97
2022-12-16T22:34:30.093Z,100.00
2022-12-16T22:37:14.840Z,100.00
2022-12-16T22:39:59.689Z,100.00
2022-12-16T22:42:44.369Z,100.00
2022-12-16T22:45:29.076Z,100.00
2022-12-16T22:48:14.198Z,100.00
2022-12-16T22:50:59.185Z,98.96
2022-12-16T22:53:44.091Z,98.93
2022-12-16T22:56:29.255Z,99.80
2022-12-16T22:59:14.059Z,100.00
2022-12-16T23:01:59.052Z,100.00
2022-12-16T23:04:43.668Z,100.00
2022-12-16T23:07:28.262Z,100.00
2022-12-16T23:10:12.695Z,100.00
2022-12-16T23:12:57.719Z,100.00
2022-12-16T23:15:42.643Z,100.00
2022-12-16T23:18:27.668Z,100.00
2022-12-16T23:21:12.244Z,100.00
2022-12-16T23:23:59.005Z,100.00
2022-12-16T23:26:43.743Z,99.66
2022-12-16T23:29:28.556Z,99.79
2022-12-16T23:32:13.207Z,99.86
2022-12-16T23:32:29.649Z,100.00
2022-12-16T23:34:58.407Z,99.14
2022-12-16T23:37:43.072Z,99.60
2022-12-16T23:40:28.569Z,99.85
2022-12-16T23:43:13.053Z,100.00
2022-12-16T23:45:58.468Z,100.00
2022-12-16T23:48:43.266Z,100.00
2022-12-16T23:51:28.026Z,100.00
2022-12-16T23:54:12.969Z,100.00
2022-12-16T23:56:57.734Z,100.00
2022-12-16T23:59:42.473Z,100.00
